createdAt,value
2023-02-12T00:01:51.256Z,22.65
2023-02-12T00:06:54.024Z,22.66
2023-02-12T00:11:56.890Z,22.67
2023-02-12T00:17:01.350Z,22.69
2023-02-12T00:22:04.320Z,22.73
2023-02-12T00:27:07.077Z,22.60
2023-02-12T00:32:11.802Z,22.61
2023-02-12T00:37:15.369Z,22.59
2023-02-12T00:42:18.174Z,22.59
2023-02-12T00:47:23.094Z,22.63
2023-02-12T00:52:26.154Z,22.65
2023-02-12T00:57:28.958Z,22.66
2023-02-12T01:02:34.011Z,22.66
2023-02-12T01:07:38.475Z,22.60
2023-02-12T01:12:41.544Z,22.47
2023-02-12T01:17:46.345Z,22.56
2023-02-12T01:22:49.271Z,22.55
2023-02-12T01:27:54.825Z,22.55
2023-02-12T01:33:00.597Z,22.41
2023-02-12T01:38:03.390Z,22.55
2023-02-12T01:43:08.223Z,22.45
2023-02-12T01:48:12.588Z,22.56
2023-02-12T01:53:20.228Z,22.56
2023-02-12T01:58:26.053Z,22.53
2023-02-12T02:03:30.502Z,22.52
2023-02-12T02:08:34.902Z,22.55
2023-02-12T02:13:55.072Z,22.51
2023-02-12T02:19:09.393Z,22.39
2023-02-12T02:24:39.478Z,22.41
2023-02-12T02:29:49.772Z,22.38
2023-02-12T02:35:00.521Z,22.33
2023-02-12T02:40:13.085Z,22.30
2023-02-12T02:45:19.952Z,22.24
2023-02-12T02:50:28.724Z,22.21
2023-02-12T02:55:38.006Z,22.15
2023-02-12T03:00:45.266Z,22.19
2023-02-12T03:05:54.200Z,22.21
2023-02-12T03:11:00.947Z,22.23
2023-02-12T03:16:10.113Z,22.25
2023-02-12T03:21:19.238Z,22.20
2023-02-12T03:26:27.275Z,22.13
2023-02-12T03:31:37.171Z,22.10
2023-02-12T03:36:52.486Z,22.04
2023-02-12T03:42:03.479Z,21.99
2023-02-12T03:47:17.164Z,21.95
2023-02-12T03:52:21.459Z,21.90
2023-02-12T03:57:30.547Z,21.85
2023-02-12T04:02:33.566Z,21.80
2023-02-12T04:07:38.280Z,21.78
2023-02-12T04:12:44.136Z,21.74
2023-02-12T04:17:55.388Z,21.69
2023-02-12T04:23:12.628Z,21.63
2023-02-12T04:28:28.771Z,21.59
2023-02-12T04:33:40.909Z,21.52
2023-02-12T04:38:52.631Z,21.47
2023-02-12T04:43:55.454Z,21.41
2023-02-12T04:48:59.971Z,21.36
2023-02-12T04:54:04.158Z,21.32
2023-02-12T04:59:07.504Z,21.28
2023-02-12T05:04:12.834Z,21.23
2023-02-12T05:09:19.260Z,21.21
2023-02-12T05:14:24.789Z,21.17
2023-02-12T05:19:27.706Z,21.13
2023-02-12T05:24:31.846Z,21.09
2023-02-12T05:29:34.704Z,21.06
2023-02-12T05:34:38.181Z,21.03
2023-02-12T05:39:42.511Z,21.01
2023-02-12T05:44:45.520Z,20.97
2023-02-12T05:49:48.326Z,20.94
2023-02-12T05:54:52.468Z,20.94
2023-02-12T05:59:55.543Z,20.91
2023-02-12T06:04:58.306Z,20.88
2023-02-12T06:10:02.464Z,20.86
2023-02-12T06:15:05.622Z,20.83
2023-02-12T06:20:08.959Z,20.80
2023-02-12T06:25:13.114Z,20.80
2023-02-12T06:30:16.731Z,20.78
2023-02-12T06:35:19.729Z,20.75
2023-02-12T06:40:24.129Z,20.73
2023-02-12T06:45:27.048Z,20.72
2023-02-12T06:50:31.326Z,20.69
2023-02-12T06:55:35.822Z,20.67
2023-02-12T07:00:38.628Z,20.65
2023-02-12T07:05:41.487Z,20.65
2023-02-12T07:10:49.658Z,20.62
2023-02-12T07:15:52.582Z,20.60
2023-02-12T07:20:57.309Z,20.58
2023-02-12T07:26:03.722Z,20.57
2023-02-12T07:31:11.310Z,20.55
2023-02-12T07:36:16.155Z,20.56
2023-02-12T07:41:22.267Z,20.54
2023-02-12T07:46:29.796Z,20.54
2023-02-12T07:51:33.764Z,20.50
2023-02-12T07:56:39.870Z,20.51
2023-02-12T08:01:44.546Z,20.50
2023-02-12T08:06:49.436Z,20.26
2023-02-12T08:11:53.825Z,16.34
2023-02-12T08:16:56.638Z,15.52
2023-02-12T08:21:59.566Z,15.91
2023-02-12T08:27:03.885Z,18.33
2023-02-12T08:32:10.584Z,19.09
2023-02-12T08:37:13.482Z,19.44
2023-02-12T08:42:17.720Z,19.70
2023-02-12T08:47:20.481Z,19.91
2023-02-12T08:52:23.219Z,20.02
2023-02-12T08:57:27.444Z,20.13
2023-02-12T09:02:30.243Z,20.25
2023-02-12T09:07:33.169Z,20.35
2023-02-12T09:12:37.364Z,20.46
2023-02-12T09:17:41.693Z,20.54
2023-02-12T09:22:44.430Z,20.61
2023-02-12T09:27:48.491Z,20.68
2023-02-12T09:32:51.244Z,20.73
2023-02-12T09:37:54.439Z,20.76
2023-02-12T09:43:07.488Z,20.81
2023-02-12T09:48:32.874Z,20.88
2023-02-12T09:53:40.279Z,20.91
2023-02-12T09:58:48.383Z,20.95
2023-02-12T10:03:53.350Z,21.00
2023-02-12T10:09:23.107Z,21.03
2023-02-12T10:15:01.119Z,21.05
2023-02-12T10:20:24.703Z,21.09
2023-02-12T10:25:37.211Z,21.10
2023-02-12T10:30:49.436Z,21.14
2023-02-12T10:35:58.310Z,21.20
2023-02-12T10:41:02.500Z,21.23
2023-02-12T10:46:06.789Z,21.24
2023-02-12T10:51:30.817Z,21.27
2023-02-12T10:56:33.764Z,21.31
2023-02-12T11:01:39.740Z,21.32
2023-02-12T11:06:58.469Z,21.36
2023-02-12T11:12:01.720Z,21.36
2023-02-12T11:17:06.066Z,21.39
2023-02-12T11:22:14.564Z,21.42
2023-02-12T11:27:25.218Z,21.43
2023-02-12T11:32:29.444Z,21.43
2023-02-12T11:37:36.418Z,21.46
2023-02-12T11:42:41.434Z,21.51
2023-02-12T11:47:46.461Z,21.57
2023-02-12T11:52:51.851Z,21.57
2023-02-12T11:58:02.967Z,21.57
2023-02-12T12:03:16.291Z,21.57
2023-02-12T12:08:25.377Z,21.58
2023-02-12T12:13:34.876Z,21.57
2023-02-12T12:19:05.414Z,21.58
2023-02-12T12:24:15.863Z,21.62
2023-02-12T12:29:25.580Z,21.64
2023-02-12T12:34:30.257Z,21.65
2023-02-12T12:39:37.949Z,21.69
2023-02-12T12:44:56.316Z,21.70
2023-02-12T12:50:24.007Z,21.71
2023-02-12T12:56:00.047Z,21.72
2023-02-12T13:01:21.544Z,21.74
2023-02-12T13:06:39.404Z,21.74
2023-02-12T13:11:56.385Z,21.76
2023-02-12T13:17:09.164Z,21.77
2023-02-12T13:22:24.210Z,21.81
2023-02-12T13:27:34.503Z,21.82
2023-02-12T13:32:43.254Z,21.85
2023-02-12T13:37:50.336Z,21.85
2023-02-12T13:42:59.344Z,21.86
2023-02-12T13:48:21.446Z,21.87
2023-02-12T13:53:32.218Z,21.88
2023-02-12T13:58:51.949Z,21.88
2023-02-12T14:03:54.812Z,21.90
2023-02-12T14:09:11.052Z,21.92
2023-02-12T14:14:14.264Z,21.92
2023-02-12T14:19:38.737Z,21.95
2023-02-12T14:24:52.666Z,21.95
2023-02-12T14:30:17.878Z,21.94
2023-02-12T14:35:35.138Z,22.00
2023-02-12T14:40:42.779Z,21.99
2023-02-12T14:45:45.731Z,22.00
2023-02-12T14:50:52.019Z,21.95
2023-02-12T14:55:58.208Z,21.95
2023-02-12T15:01:04.060Z,21.91
2023-02-12T15:06:14.560Z,21.91
2023-02-12T15:11:35.109Z,21.95
2023-02-12T15:16:50.612Z,21.96
2023-02-12T15:21:55.470Z,21.94
2023-02-12T15:27:01.460Z,21.93
2023-02-12T15:32:07.863Z,21.92
2023-02-12T15:37:17.840Z,21.94
2023-02-12T15:42:31.541Z,21.94
2023-02-12T15:47:34.682Z,21.94
2023-02-12T15:52:40.681Z,21.92
2023-02-12T15:57:45.854Z,21.93
2023-02-12T16:02:53.299Z,21.93
2023-02-12T16:07:56.999Z,21.93
2023-02-12T16:13:01.524Z,21.92
2023-02-12T16:18:06.734Z,21.93
2023-02-12T16:23:10.134Z,21.93
2023-02-12T16:28:23.835Z,21.97
2023-02-12T16:33:43.280Z,21.95
2023-02-12T16:38:47.910Z,21.96
2023-02-12T16:44:12.950Z,21.97
2023-02-12T16:49:18.720Z,21.99
2023-02-12T16:54:31.220Z,22.02
2023-02-12T16:59:34.958Z,22.02
2023-02-12T17:04:39.726Z,22.02
2023-02-12T17:09:42.687Z,22.02
2023-02-12T17:14:45.463Z,22.00
2023-02-12T17:19:49.784Z,21.96
2023-02-12T17:24:53.185Z,21.94
2023-02-12T17:29:56.014Z,21.92
2023-02-12T17:35:00.199Z,21.89
2023-02-12T17:40:02.949Z,21.85
2023-02-12T17:45:06.516Z,21.82
2023-02-12T17:50:12.824Z,21.80
2023-02-12T17:55:17.388Z,21.77
2023-02-12T18:00:21.556Z,21.74
2023-02-12T18:05:25.710Z,21.72
2023-02-12T18:10:28.472Z,21.69
2023-02-12T18:15:31.274Z,21.67
2023-02-12T18:20:35.419Z,21.62
2023-02-12T18:25:42.105Z,21.60
2023-02-12T18:30:45.070Z,21.57
2023-02-12T18:35:59.949Z,21.56
2023-02-12T18:41:07.328Z,21.52
2023-02-12T18:46:12.111Z,21.51
2023-02-12T18:51:18.979Z,21.56
2023-02-12T18:56:21.754Z,21.63
2023-02-12T19:01:25.600Z,21.72
2023-02-12T19:06:30.847Z,21.80
2023-02-12T19:11:35.139Z,21.85
2023-02-12T19:16:38.054Z,21.93
2023-02-12T19:21:42.443Z,21.99
2023-02-12T19:26:46.396Z,22.02
2023-02-12T19:31:49.765Z,22.05
2023-02-12T19:36:54.064Z,22.06
2023-02-12T19:41:57.260Z,22.06
2023-02-12T19:47:00.163Z,22.10
2023-02-12T19:52:04.615Z,22.11
2023-02-12T19:57:09.203Z,22.16
2023-02-12T20:02:12.203Z,22.15
2023-02-12T20:07:16.303Z,22.24
2023-02-12T20:12:19.299Z,22.25
2023-02-12T20:17:22.131Z,22.30
2023-02-12T20:22:26.257Z,22.36
2023-02-12T20:27:29.219Z,22.38
2023-02-12T20:32:34.555Z,22.41
2023-02-12T20:37:38.960Z,22.47
2023-02-12T20:42:41.961Z,22.50
2023-02-12T20:47:44.785Z,22.54
2023-02-12T20:52:48.956Z,22.56
2023-02-12T20:57:51.965Z,22.63
2023-02-12T21:02:55.440Z,22.62
2023-02-12T21:07:59.690Z,22.49
2023-02-12T21:13:02.525Z,22.57
2023-02-12T21:18:05.474Z,22.65
2023-02-12T21:23:09.675Z,22.69
2023-02-12T21:28:12.622Z,22.38
2023-02-12T21:33:15.398Z,22.64
2023-02-12T21:38:19.583Z,22.62
2023-02-12T21:43:22.341Z,22.52
2023-02-12T21:48:25.135Z,22.60
2023-02-12T21:53:30.401Z,22.57
2023-02-12T21:58:33.206Z,22.50
2023-02-12T22:03:36.185Z,22.67
2023-02-12T22:08:40.521Z,22.58
2023-02-12T22:13:43.535Z,22.59
2023-02-12T22:18:47.106Z,22.53
2023-02-12T22:23:51.726Z,22.44
2023-02-12T22:28:56.730Z,22.52
2023-02-12T22:34:02.227Z,22.53
2023-02-12T22:39:06.982Z,22.49
2023-02-12T22:44:11.085Z,22.55
2023-02-12T22:49:14.500Z,22.51
2023-02-12T22:54:20.110Z,22.43
2023-02-12T22:59:22.932Z,22.48
2023-02-12T23:04:26.026Z,22.52
2023-02-12T23:09:30.363Z,22.41
2023-02-12T23:14:33.911Z,22.61
2023-02-12T23:19:36.764Z,22.55
2023-02-12T23:24:40.940Z,22.34
2023-02-12T23:29:43.766Z,22.33
2023-02-12T23:34:46.530Z,22.34
2023-02-12T23:39:51.778Z,22.42
2023-02-12T23:44:56.748Z,22.46
2023-02-12T23:49:59.756Z,22.35
2023-02-12T23:55:03.936Z,22.33
